createdAt,value
2023-02-11T00:01:35.748Z,-3.72
2023-02-11T00:04:38.764Z,-3.76
2023-02-11T00:07:41.481Z,-3.87
2023-02-11T00:10:46.559Z,-3.86
2023-02-11T00:13:49.557Z,-4.03
2023-02-11T00:16:52.648Z,-4.11
2023-02-11T00:19:55.361Z,-4.13
2023-02-11T00:22:58.359Z,-4.04
2023-02-11T00:26:01.040Z,-3.87
2023-02-11T00:29:05.950Z,-3.78
2023-02-11T00:32:09.223Z,-3.97
2023-02-11T00:35:12.280Z,-3.97
2023-02-11T00:38:15.212Z,-3.92
2023-02-11T00:41:18.884Z,-3.99
2023-02-11T00:44:21.723Z,-4.16
2023-02-11T00:47:24.943Z,-4.08
2023-02-11T00:50:27.581Z,-4.12
2023-02-11T00:53:32.897Z,-3.87
2023-02-11T00:56:36.160Z,-3.93
2023-02-11T00:59:39.275Z,-3.91
2023-02-11T01:02:42.040Z,-4.00
2023-02-11T01:05:45.681Z,-4.02
2023-02-11T01:08:48.619Z,-3.92
2023-02-11T01:11:51.764Z,-4.00
2023-02-11T01:14:54.448Z,-3.95
2023-02-11T01:17:57.504Z,-3.95
2023-02-11T01:21:00.189Z,-4.20
2023-02-11T01:24:03.263Z,-3.92
2023-02-11T01:27:06.007Z,-4.10
2023-02-11T01:30:12.978Z,-4.12
2023-02-11T01:33:15.831Z,-4.15
2023-02-11T01:36:18.973Z,-4.40
2023-02-11T01:39:21.789Z,-4.36
2023-02-11T01:42:25.002Z,-4.26
2023-02-11T01:45:48.923Z,-4.38
2023-02-11T01:49:09.878Z,-4.57
2023-02-11T01:52:20.399Z,-4.63
2023-02-11T01:55:42.178Z,-4.68
2023-02-11T01:58:47.703Z,-4.66
2023-02-11T02:01:57.422Z,-4.56
2023-02-11T02:05:17.217Z,-4.44
2023-02-11T02:08:23.964Z,-4.34
2023-02-11T02:11:27.082Z,-4.29
2023-02-11T02:14:29.824Z,-4.31
2023-02-11T02:17:47.057Z,-4.25
2023-02-11T02:21:26.528Z,-4.18
2023-02-11T02:24:47.487Z,-4.40
2023-02-11T02:28:19.351Z,-4.22
2023-02-11T02:31:31.928Z,-4.26
2023-02-11T02:34:52.785Z,-4.37
2023-02-11T02:38:20.090Z,-4.11
2023-02-11T02:41:28.749Z,-4.16
2023-02-11T02:44:32.709Z,-4.43
2023-02-11T02:47:35.344Z,-4.44
2023-02-11T02:50:38.604Z,-4.47
2023-02-11T02:54:02.373Z,-4.50
2023-02-11T02:57:45.214Z,-4.63
2023-02-11T03:01:18.396Z,-4.71
2023-02-11T03:04:30.417Z,-4.80
2023-02-11T03:07:45.635Z,-4.84
2023-02-11T03:10:52.438Z,-4.83
2023-02-11T03:13:56.687Z,-4.71
2023-02-11T03:17:03.028Z,-4.81
2023-02-11T03:20:10.318Z,-4.83
2023-02-11T03:23:24.054Z,-4.71
2023-02-11T03:26:40.992Z,-4.70
2023-02-11T03:29:55.151Z,-4.71
2023-02-11T03:32:59.519Z,-4.80
2023-02-11T03:36:15.429Z,-4.97
2023-02-11T03:39:33.578Z,-4.87
2023-02-11T03:42:42.725Z,-4.83
2023-02-11T03:45:48.840Z,-4.83
2023-02-11T03:48:58.273Z,-4.74
2023-02-11T03:52:02.907Z,-4.74
2023-02-11T03:55:18.598Z,-4.95
2023-02-11T03:58:21.545Z,-4.89
2023-02-11T04:01:24.740Z,-4.81
2023-02-11T04:04:27.949Z,-5.01
2023-02-11T04:07:31.015Z,-5.04
2023-02-11T04:10:34.094Z,-5.16
2023-02-11T04:13:36.772Z,-5.09
2023-02-11T04:16:40.213Z,-5.16
2023-02-11T04:19:42.948Z,-5.16
2023-02-11T04:22:46.085Z,-5.19
2023-02-11T04:25:52.681Z,-5.31
2023-02-11T04:28:55.915Z,-5.14
2023-02-11T04:31:58.674Z,-5.33
2023-02-11T04:35:03.023Z,-5.33
2023-02-11T04:38:05.847Z,-5.36
2023-02-11T04:41:09.054Z,-5.37
2023-02-11T04:44:11.923Z,-5.25
2023-02-11T04:47:15.715Z,-5.30
2023-02-11T04:50:18.537Z,-5.33
2023-02-11T04:53:22.210Z,-5.40
2023-02-11T04:56:25.017Z,-5.26
2023-02-11T04:59:28.212Z,-5.32
2023-02-11T05:02:30.922Z,-5.33
2023-02-11T05:05:34.181Z,-5.16
2023-02-11T05:08:36.988Z,-5.13
2023-02-11T05:11:40.323Z,-5.09
2023-02-11T05:14:43.033Z,-5.19
2023-02-11T05:17:46.188Z,-5.36
2023-02-11T05:20:49.064Z,-5.42
2023-02-11T05:23:52.582Z,-5.36
2023-02-11T05:26:55.315Z,-5.35
2023-02-11T05:29:58.417Z,-5.20
2023-02-11T05:33:01.237Z,-5.26
2023-02-11T05:36:07.913Z,-5.07
2023-02-11T05:39:10.611Z,-4.82
2023-02-11T05:42:14.081Z,-4.87
2023-02-11T05:45:16.842Z,-4.83
2023-02-11T05:48:20.032Z,-4.89
2023-02-11T05:51:25.393Z,-4.96
2023-02-11T05:54:28.472Z,-5.04
2023-02-11T05:57:31.179Z,-5.06
2023-02-11T06:00:34.602Z,-5.06
2023-02-11T06:03:38.019Z,-4.95
2023-02-11T06:06:41.153Z,-5.01
2023-02-11T06:09:44.443Z,-4.98
2023-02-11T06:12:47.152Z,-5.01
2023-02-11T06:15:58.672Z,-5.24
2023-02-11T06:19:01.449Z,-5.47
2023-02-11T06:22:04.594Z,-5.33
2023-02-11T06:25:07.601Z,-5.25
2023-02-11T06:28:10.945Z,-5.10
2023-02-11T06:31:15.282Z,-4.95
2023-02-11T06:34:18.367Z,-4.51
2023-02-11T06:37:21.671Z,-4.04
2023-02-11T06:40:24.816Z,-4.02
2023-02-11T06:43:27.759Z,-3.95
2023-02-11T06:46:31.027Z,-3.74
2023-02-11T06:49:33.717Z,-3.54
2023-02-11T06:52:36.891Z,-3.49
2023-02-11T06:55:39.728Z,-3.34
2023-02-11T06:58:42.947Z,-3.30
2023-02-11T07:01:45.828Z,-3.18
2023-02-11T07:04:49.003Z,-3.11
2023-02-11T07:07:51.647Z,-3.07
2023-02-11T07:10:54.672Z,-2.95
2023-02-11T07:14:02.537Z,-2.89
2023-02-11T07:17:06.147Z,-2.83
2023-02-11T07:20:09.746Z,-2.67
2023-02-11T07:23:12.897Z,-2.52
2023-02-11T07:26:18.806Z,-2.41
2023-02-11T07:29:21.989Z,-2.41
2023-02-11T07:32:24.652Z,-2.37
2023-02-11T07:35:27.749Z,-2.21
2023-02-11T07:38:31.474Z,-2.17
2023-02-11T07:41:37.843Z,-2.11
2023-02-11T07:44:41.364Z,-2.03
2023-02-11T07:47:44.672Z,-1.88
2023-02-11T07:50:47.520Z,-1.76
2023-02-11T07:53:52.163Z,-1.66
2023-02-11T07:56:54.972Z,-1.67
2023-02-11T07:59:58.011Z,-1.51
2023-02-11T08:03:00.885Z,-1.36
2023-02-11T08:06:14.960Z,-1.39
2023-02-11T08:09:18.014Z,-1.14
2023-02-11T08:12:21.071Z,-1.05
2023-02-11T08:15:23.866Z,-0.75
2023-02-11T08:18:26.819Z,-0.49
2023-02-11T08:21:30.331Z,-0.12
2023-02-11T08:24:33.327Z,0.08
2023-02-11T08:27:36.036Z,0.37
2023-02-11T08:30:39.023Z,0.57
2023-02-11T08:33:42.108Z,0.59
2023-02-11T08:36:46.654Z,0.86
2023-02-11T08:39:49.408Z,0.84
2023-02-11T08:42:52.644Z,1.36
2023-02-11T08:45:55.386Z,2.01
2023-02-11T08:48:58.817Z,2.40
2023-02-11T08:52:04.302Z,2.28
2023-02-11T08:55:07.561Z,2.38
2023-02-11T08:58:10.218Z,2.44
2023-02-11T09:02:50.488Z,3.85
2023-02-11T09:05:53.767Z,3.85
2023-02-11T09:08:58.786Z,3.27
2023-02-11T09:12:01.927Z,3.13
2023-02-11T09:15:05.073Z,3.30
2023-02-11T09:18:08.320Z,3.24
2023-02-11T09:21:11.039Z,3.24
2023-02-11T09:24:15.050Z,3.40
2023-02-11T09:27:17.788Z,3.52
2023-02-11T09:30:21.189Z,3.45
2023-02-11T09:33:24.016Z,3.30
2023-02-11T09:36:38.785Z,3.18
2023-02-11T09:39:41.523Z,3.08
2023-02-11T09:43:01.136Z,3.14
2023-02-11T09:46:05.918Z,3.30
2023-02-11T09:49:20.180Z,3.66
2023-02-11T09:52:53.851Z,3.74
2023-02-11T09:56:00.743Z,4.10
2023-02-11T09:59:04.856Z,4.29
2023-02-11T10:02:28.038Z,4.88
2023-02-11T10:06:06.117Z,5.72
2023-02-11T10:09:30.842Z,6.01
2023-02-11T10:12:55.659Z,6.66
2023-02-11T10:16:01.144Z,6.51
2023-02-11T10:19:22.405Z,6.75
2023-02-11T10:22:31.222Z,6.20
2023-02-11T10:25:38.644Z,6.46
2023-02-11T10:28:46.331Z,6.30
2023-02-11T10:31:51.065Z,6.60
2023-02-11T10:34:58.951Z,6.87
2023-02-11T10:38:01.971Z,6.74
2023-02-11T10:41:05.621Z,7.60
2023-02-11T10:44:08.810Z,7.94
2023-02-11T10:47:27.912Z,8.81
2023-02-11T10:50:37.216Z,8.98
2023-02-11T10:53:40.127Z,9.20
2023-02-11T10:56:53.732Z,10.23
2023-02-11T11:00:06.919Z,10.22
2023-02-11T11:03:22.452Z,10.30
2023-02-11T11:06:33.172Z,10.34
2023-02-11T11:09:48.578Z,9.87
2023-02-11T11:12:51.647Z,9.22
2023-02-11T11:16:33.764Z,9.83
2023-02-11T11:19:39.364Z,10.23
2023-02-11T11:22:43.480Z,9.66
2023-02-11T11:26:24.750Z,9.05
2023-02-11T11:29:35.956Z,8.49
2023-02-11T11:32:42.340Z,8.36
2023-02-11T11:35:59.883Z,8.41
2023-02-11T11:39:17.628Z,8.61
2023-02-11T11:42:32.876Z,8.83
2023-02-11T11:45:35.830Z,8.39
2023-02-11T11:48:42.555Z,7.83
2023-02-11T11:51:55.398Z,7.76
2023-02-11T11:55:16.460Z,7.92
2023-02-11T11:58:22.337Z,8.51
2023-02-11T12:01:57.827Z,8.76
2023-02-11T12:05:23.865Z,8.54
2023-02-11T12:08:48.882Z,8.40
2023-02-11T12:12:19.503Z,8.32
2023-02-11T12:15:56.390Z,8.18
2023-02-11T12:19:30.676Z,8.73
2023-02-11T12:23:12.148Z,9.36
2023-02-11T12:26:20.789Z,9.44
2023-02-11T12:29:45.923Z,8.89
2023-02-11T12:33:05.120Z,8.63
2023-02-11T12:36:47.068Z,8.08
2023-02-11T12:40:12.337Z,7.69
2023-02-11T12:43:26.158Z,7.56
2023-02-11T12:46:36.380Z,7.59
2023-02-11T12:50:07.762Z,7.63
2023-02-11T12:53:17.040Z,7.53
2023-02-11T12:56:39.149Z,7.54
2023-02-11T12:59:42.410Z,7.63
2023-02-11T13:02:51.530Z,8.10
2023-02-11T13:05:59.441Z,8.01
2023-02-11T13:09:07.098Z,7.87
2023-02-11T13:12:32.861Z,7.68
2023-02-11T13:15:36.384Z,8.06
2023-02-11T13:19:14.130Z,8.06
2023-02-11T13:22:25.566Z,8.40
2023-02-11T13:26:10.521Z,8.84
2023-02-11T13:29:21.209Z,8.55
2023-02-11T13:32:24.895Z,8.69
2023-02-11T13:35:35.397Z,8.37
2023-02-11T13:38:39.933Z,8.03
2023-02-11T13:41:45.685Z,8.32
2023-02-11T13:44:49.418Z,8.27
2023-02-11T13:47:58.649Z,8.03
2023-02-11T13:51:07.709Z,7.87
2023-02-11T13:54:39.825Z,7.88
2023-02-11T13:57:43.674Z,7.81
2023-02-11T14:00:50.202Z,7.71
2023-02-11T14:04:45.476Z,7.76
2023-02-11T14:08:29.124Z,7.73
2023-02-11T14:11:37.608Z,7.76
2023-02-11T14:15:19.261Z,7.77
2023-02-11T14:18:39.793Z,7.59
2023-02-11T14:21:44.816Z,7.58
2023-02-11T14:24:55.717Z,7.40
2023-02-11T14:28:25.244Z,7.29
2023-02-11T14:31:47.265Z,7.10
2023-02-11T14:35:15.551Z,6.97
2023-02-11T14:38:41.207Z,6.86
2023-02-11T14:41:48.385Z,6.83
2023-02-11T14:44:56.712Z,6.79
2023-02-11T14:48:18.644Z,6.64
2023-02-11T14:51:31.788Z,6.64
2023-02-11T14:54:35.829Z,6.57
2023-02-11T14:57:40.088Z,6.47
2023-02-11T15:00:59.915Z,6.43
2023-02-11T15:04:07.555Z,6.40
2023-02-11T15:07:13.752Z,6.27
2023-02-11T15:10:30.172Z,6.27
2023-02-11T15:13:35.172Z,6.20
2023-02-11T15:16:45.750Z,6.13
2023-02-11T15:19:55.337Z,6.12
2023-02-11T15:23:03.837Z,6.08
2023-02-11T15:26:15.928Z,6.03
2023-02-11T15:29:24.938Z,6.01
2023-02-11T15:32:28.918Z,5.95
2023-02-11T15:35:32.836Z,5.88
2023-02-11T15:38:37.289Z,5.82
2023-02-11T15:41:43.197Z,5.75
2023-02-11T15:44:54.324Z,5.68
2023-02-11T15:48:08.085Z,5.67
2023-02-11T15:51:34.217Z,5.58
2023-02-11T15:54:40.868Z,5.54
2023-02-11T15:58:04.284Z,5.44
2023-02-11T16:01:10.731Z,5.40
2023-02-11T16:04:21.864Z,5.36
2023-02-11T16:07:48.071Z,5.31
2023-02-11T16:11:03.794Z,5.30
2023-02-11T16:14:29.952Z,5.25
2023-02-11T16:17:35.244Z,5.21
2023-02-11T16:20:42.406Z,5.23
2023-02-11T16:23:54.084Z,5.22
2023-02-11T16:27:05.300Z,5.25
2023-02-11T16:30:33.965Z,5.24
2023-02-11T16:33:40.688Z,5.21
2023-02-11T16:36:50.106Z,5.19
2023-02-11T16:39:59.443Z,5.24
2023-02-11T16:43:04.084Z,5.25
2023-02-11T16:46:09.487Z,5.25
2023-02-11T16:49:23.200Z,5.27
2023-02-11T16:52:27.277Z,5.26
2023-02-11T16:55:32.595Z,5.33
2023-02-11T16:58:36.558Z,5.28
2023-02-11T17:01:45.886Z,5.28
2023-02-11T17:04:50.203Z,5.22
2023-02-11T17:07:54.731Z,5.16
2023-02-11T17:11:00.311Z,5.12
2023-02-11T17:14:06.256Z,5.15
2023-02-11T17:17:11.469Z,5.14
2023-02-11T17:20:16.679Z,5.09
2023-02-11T17:23:20.544Z,5.11
2023-02-11T17:26:28.959Z,5.05
2023-02-11T17:29:40.472Z,5.04
2023-02-11T17:33:00.995Z,4.83
2023-02-11T17:36:17.246Z,4.82
2023-02-11T17:39:26.128Z,4.69
2023-02-11T17:42:32.448Z,4.75
2023-02-11T17:45:45.581Z,4.68
2023-02-11T17:48:53.328Z,4.71
2023-02-11T17:52:00.315Z,4.83
2023-02-11T17:55:06.040Z,4.68
2023-02-11T17:58:13.522Z,4.57
2023-02-11T18:01:18.166Z,4.56
2023-02-11T18:04:22.830Z,4.50
2023-02-11T18:07:27.150Z,4.42
2023-02-11T18:10:31.985Z,4.38
2023-02-11T18:13:35.518Z,4.42
2023-02-11T18:16:45.048Z,4.34
2023-02-11T18:19:49.434Z,4.43
2023-02-11T18:22:54.819Z,4.42
2023-02-11T18:25:59.367Z,4.29
2023-02-11T18:29:08.026Z,4.38
2023-02-11T18:32:16.089Z,4.39
2023-02-11T18:35:24.196Z,4.28
2023-02-11T18:38:29.561Z,4.49
2023-02-11T18:41:36.837Z,4.56
2023-02-11T18:44:40.982Z,4.54
2023-02-11T18:47:56.137Z,4.63
2023-02-11T18:51:00.164Z,4.63
2023-02-11T18:54:09.848Z,4.61
2023-02-11T18:57:13.941Z,4.78
2023-02-11T19:00:18.989Z,4.65
2023-02-11T19:03:23.263Z,4.53
2023-02-11T19:06:30.402Z,4.47
2023-02-11T19:09:34.377Z,4.61
2023-02-11T19:12:51.535Z,4.55
2023-02-11T19:15:55.904Z,4.30
2023-02-11T19:19:00.438Z,4.42
2023-02-11T19:22:10.239Z,4.50
2023-02-11T19:25:15.435Z,4.41
2023-02-11T19:28:22.977Z,4.45
2023-02-11T19:31:28.365Z,4.50
2023-02-11T19:34:34.610Z,4.52
2023-02-11T19:37:39.548Z,4.70
2023-02-11T19:40:43.896Z,4.79
2023-02-11T19:43:53.118Z,4.83
2023-02-11T19:46:57.083Z,4.87
2023-02-11T19:50:02.594Z,5.02
2023-02-11T19:53:07.210Z,5.00
2023-02-11T19:56:14.127Z,5.02
2023-02-11T19:59:17.909Z,5.09
2023-02-11T20:02:22.031Z,5.23
2023-02-11T20:05:27.954Z,5.10
2023-02-11T20:08:34.715Z,5.11
2023-02-11T20:11:42.541Z,5.08
2023-02-11T20:14:48.593Z,5.10
2023-02-11T20:17:57.032Z,5.06
2023-02-11T20:21:03.810Z,5.01
2023-02-11T20:24:08.999Z,5.08
2023-02-11T20:27:13.253Z,5.08
2023-02-11T20:30:19.036Z,5.11
2023-02-11T20:33:23.660Z,4.80
2023-02-11T20:36:32.324Z,4.97
2023-02-11T20:39:42.558Z,4.95
2023-02-11T20:42:50.112Z,5.10
2023-02-11T20:45:56.864Z,5.04
2023-02-11T20:49:04.221Z,5.07
2023-02-11T20:52:08.849Z,5.12
2023-02-11T20:55:23.183Z,5.12
2023-02-11T20:58:26.838Z,5.26
2023-02-11T21:01:36.947Z,5.22
2023-02-11T21:04:42.572Z,5.16
2023-02-11T21:07:47.030Z,5.20
2023-02-11T21:10:53.244Z,5.14
2023-02-11T21:13:58.097Z,5.14
2023-02-11T21:17:02.554Z,5.03
2023-02-11T21:20:09.190Z,5.00
2023-02-11T21:23:12.752Z,5.01
2023-02-11T21:26:18.883Z,5.04
2023-02-11T21:29:22.700Z,4.99
2023-02-11T21:32:27.176Z,4.95
2023-02-11T21:35:36.557Z,4.94
2023-02-11T21:38:40.166Z,4.95
2023-02-11T21:41:43.025Z,4.94
2023-02-11T21:44:47.331Z,4.91
2023-02-11T21:47:50.761Z,4.92
2023-02-11T21:50:55.181Z,4.97
2023-02-11T21:54:01.904Z,4.93
2023-02-11T21:57:05.803Z,4.95
2023-02-11T22:00:11.642Z,4.95
2023-02-11T22:03:15.236Z,5.00
2023-02-11T22:06:27.167Z,4.97
2023-02-11T22:09:30.465Z,4.96
2023-02-11T22:12:33.427Z,4.97
2023-02-11T22:15:36.559Z,4.94
2023-02-11T22:18:39.831Z,4.94
2023-02-11T22:21:43.889Z,4.92
2023-02-11T22:24:46.942Z,4.91
2023-02-11T22:27:50.196Z,4.91
2023-02-11T22:30:55.148Z,4.87
2023-02-11T22:33:58.958Z,4.96
2023-02-11T22:37:02.621Z,4.91
2023-02-11T22:40:06.428Z,4.92
2023-02-11T22:43:09.782Z,4.92
2023-02-11T22:46:16.640Z,4.91
2023-02-11T22:49:21.539Z,4.93
2023-02-11T22:52:24.641Z,4.94
2023-02-11T22:55:27.453Z,4.90
2023-02-11T22:58:30.702Z,4.93
2023-02-11T23:01:33.980Z,4.91
2023-02-11T23:04:37.142Z,4.93
2023-02-11T23:07:39.812Z,4.94
2023-02-11T23:10:42.922Z,4.93
2023-02-11T23:13:46.988Z,4.91
2023-02-11T23:16:50.268Z,4.91
2023-02-11T23:19:52.973Z,4.90
2023-02-11T23:22:56.036Z,4.88
2023-02-11T23:25:58.695Z,4.86
2023-02-11T23:29:01.689Z,4.88
2023-02-11T23:32:04.584Z,4.85
2023-02-11T23:35:07.935Z,4.84
2023-02-11T23:38:10.644Z,4.84
2023-02-11T23:41:14.940Z,4.80
2023-02-11T23:44:17.613Z,4.78
2023-02-11T23:47:20.653Z,4.74
2023-02-11T23:50:23.346Z,4.79
2023-02-11T23:53:26.350Z,4.78
2023-02-11T23:56:29.138Z,4.77
2023-02-11T23:59:32.219Z,4.80
